Time,TemperatureF,DewpointF,PressureIn,WindDirection,WindDirectionDegrees,WindSpeedMPH,WindSpeedGustMPH,Humidity,HourlyPrecipIn,Conditions,Clouds,dailyrainin,SoftwareType,DateUTC
2013-03-06 00:02:00,32.3,30.0,30.07,North,350,0.0,-999.0,92,-99.99,,,0.00,weatherlink.com 1.10,2013-03-06 05:02:00,
2013-03-06 00:17:00,32.4,30.0,30.07,North,350,0.0,-999.0,92,-99.99,,,0.00,weatherlink.com 1.10,2013-03-06 05:17:00,
2013-03-06 00:32:00,32.4,30.0,30.08,North,350,0.0,-999.0,92,-99.99,,,0.00,weatherlink.com 1.10,2013-03-06 05:32:00,
2013-03-06 00:47:00,32.2,30.0,30.08,North,350,0.0,-999.0,93,-99.99,,,0.00,weatherlink.com 1.10,2013-03-06 05:47:00,
2013-03-06 01:02:00,32.2,30.0,30.08,West,265,1.0,-999.0,92,-99.99,,,0.00,weatherlink.com 1.10,2013-03-06 06:02:00,
2013-03-06 01:17:00,32.3,30.0,30.08,West,265,0.0,-999.0,92,-99.99,,,0.00,weatherlink.com 1.10,2013-03-06 06:17:00,
2013-03-06 01:32:00,32.5,30.0,30.08,West,265,0.0,-999.0,91,-99.99,,,0.00,weatherlink.com 1.10,2013-03-06 06:32:00,
2013-03-06 01:47:00,32.3,30.0,30.09,SE,145,0.0,-999.0,90,-99.99,,,0.00,weatherlink.com 1.10,2013-03-06 06:47:00,
2013-03-06 02:02:00,32.1,30.0,30.09,SE,146,0.0,-999.0,90,-99.99,,,0.00,weatherlink.com 1.10,2013-03-06 07:02:00,
2013-03-06 02:17:00,32.1,30.0,30.09,SE,146,0.0,-999.0,90,-99.99,,,0.00,weatherlink.com 1.10,2013-03-06 07:17:00,
2013-03-06 02:32:00,32.1,30.0,30.09,SE,146,0.0,-999.0,90,-99.99,,,0.00,weatherlink.com 1.10,2013-03-06 07:32:00,
2013-03-06 02:47:00,32.0,29.0,30.08,SE,146,0.0,-999.0,90,-99.99,,,0.00,weatherlink.com 1.10,2013-03-06 07:47:00,
2013-03-06 03:02:00,31.6,29.0,30.08,SE,146,0.0,-999.0,90,-99.99,,,0.00,weatherlink.com 1.10,2013-03-06 08:02:00,
2013-03-06 03:17:00,31.7,29.0,30.09,West,269,0.0,-999.0,90,-99.99,,,0.00,weatherlink.com 1.10,2013-03-06 08:17:00,
2013-03-06 03:32:00,31.8,30.0,30.09,West,269,0.0,-999.0,91,-99.99,,,0.00,weatherlink.com 1.10,2013-03-06 08:32:00,
2013-03-06 03:47:00,31.7,29.0,30.09,West,269,0.0,-999.0,90,-99.99,,,0.00,weatherlink.com 1.10,2013-03-06 08:47:00,
2013-03-06 04:02:00,31.4,29.0,30.09,West,269,0.0,-999.0,91,-99.99,,,0.00,weatherlink.com 1.10,2013-03-06 09:02:00,
2013-03-06 04:17:00,31.2,29.0,30.09,West,269,0.0,-999.0,91,-99.99,,,0.00,weatherlink.com 1.10,2013-03-06 09:17:00,
2013-03-06 04:32:00,30.8,29.0,30.09,West,269,0.0,-999.0,91,-99.99,,,0.00,weatherlink.com 1.10,2013-03-06 09:32:00,
2013-03-06 04:47:00,30.7,28.0,30.09,West,269,0.0,-999.0,91,-99.99,,,0.00,weatherlink.com 1.10,2013-03-06 09:47:00,
2013-03-06 05:02:00,30.7,28.0,30.09,West,275,0.0,-999.0,91,-99.99,,,0.00,weatherlink.com 1.10,2013-03-06 10:02:00,
2013-03-06 05:17:00,31.2,29.0,30.10,West,275,0.0,-999.0,90,-99.99,,,0.00,weatherlink.com 1.10,2013-03-06 10:17:00,
2013-03-06 05:33:00,31.6,29.0,30.10,West,275,0.0,-999.0,90,-99.99,,,0.00,weatherlink.com 1.10,2013-03-06 10:33:00,
2013-03-06 05:48:00,31.4,29.0,30.10,West,275,0.0,-999.0,89,-99.99,,,0.00,weatherlink.com 1.10,2013-03-06 10:48:00,
2013-03-06 06:03:00,30.7,28.0,30.10,West,275,0.0,-999.0,90,-99.99,,,0.00,weatherlink.com 1.10,2013-03-06 11:03:00,
2013-03-06 06:18:00,30.0,28.0,30.11,West,275,0.0,-999.0,91,-99.99,,,0.00,weatherlink.com 1.10,2013-03-06 11:18:00,
2013-03-06 06:33:00,30.5,29.0,30.11,NNE,14,0.0,-999.0,92,-99.99,,,0.00,weatherlink.com 1.10,2013-03-06 11:33:00,
2013-03-06 06:48:00,31.5,29.0,30.12,NW,317,1.0,-999.0,90,-99.99,,,0.00,weatherlink.com 1.10,2013-03-06 11:48:00,
2013-03-06 07:18:00,32.3,29.0,30.13,NW,316,1.0,-999.0,88,-99.99,,,0.00,weatherlink.com 1.10,2013-03-06 12:18:00,
2013-03-06 07:33:00,32.6,29.0,30.14,WNW,300,1.0,-999.0,87,-99.99,,,0.00,weatherlink.com 1.10,2013-03-06 12:33:00,
2013-03-06 07:48:00,32.9,29.0,30.14,NW,319,1.0,-999.0,85,-99.99,,,0.00,weatherlink.com 1.10,2013-03-06 12:48:00,
2013-03-06 08:03:00,33.0,29.0,30.15,NW,312,0.0,-999.0,86,-99.99,,,0.00,weatherlink.com 1.10,2013-03-06 13:03:00,
2013-03-06 08:18:00,33.1,29.0,30.15,WNW,298,0.0,-999.0,86,-99.99,,,0.00,weatherlink.com 1.10,2013-03-06 13:18:00,
2013-03-06 08:33:00,33.2,29.0,30.15,WNW,302,0.0,-999.0,85,-99.99,,,0.00,weatherlink.com 1.10,2013-03-06 13:33:00,
2013-03-06 08:48:00,33.8,30.0,30.16,WNW,298,2.0,-999.0,84,-99.99,,,0.00,weatherlink.com 1.10,2013-03-06 13:48:00,
2013-03-06 09:03:00,34.3,29.0,30.16,NW,317,0.0,-999.0,82,-99.99,,,0.00,weatherlink.com 1.10,2013-03-06 14:03:00,
2013-03-06 09:18:00,34.6,29.0,30.16,West,277,0.0,-999.0,81,-99.99,,,0.00,weatherlink.com 1.10,2013-03-06 14:18:00,
2013-03-06 09:33:00,34.8,29.0,30.16,WNW,291,3.0,-999.0,79,-99.99,,,0.00,weatherlink.com 1.10,2013-03-06 14:33:00,
2013-03-06 09:48:00,35.3,29.0,30.16,NW,317,3.0,-999.0,77,-99.99,,,0.00,weatherlink.com 1.10,2013-03-06 14:48:00,
2013-03-06 10:18:00,34.6,27.0,30.17,NW,311,1.0,-999.0,74,-99.99,,,0.01,weatherlink.com 1.10,2013-03-06 15:18:00,
2013-03-06 10:33:00,34.4,27.0,30.17,WNW,298,1.0,-999.0,73,-99.99,,,0.01,weatherlink.com 1.10,2013-03-06 15:33:00,
2013-03-06 10:48:00,34.6,27.0,30.17,NNW,333,0.0,-999.0,73,-99.99,,,0.01,weatherlink.com 1.10,2013-03-06 15:48:00,
2013-03-06 11:03:00,35.2,27.0,30.16,NW,305,0.0,-999.0,72,-99.99,,,0.01,weatherlink.com 1.10,2013-03-06 16:03:00,
2013-03-06 11:18:00,35.6,29.0,30.16,NNW,333,3.0,-999.0,76,-99.99,,,0.01,weatherlink.com 1.10,2013-03-06 16:18:00,
2013-03-06 11:35:00,34.9,27.0,30.16,WNW,286,4.0,-999.0,74,-99.99,,,0.02,weatherlink.com 1.10,2013-03-06 16:35:00,
2013-03-06 11:48:00,34.4,27.0,30.16,NE,54,0.0,-999.0,75,-99.99,,,0.02,weatherlink.com 1.10,2013-03-06 16:48:00,
2013-03-06 12:03:00,34.1,27.0,30.16,West,263,1.0,-999.0,75,-99.99,,,0.02,weatherlink.com 1.10,2013-03-06 17:03:00,
2013-03-06 12:18:00,34.0,27.0,30.16,WNW,294,0.0,-999.0,75,-99.99,,,0.02,weatherlink.com 1.10,2013-03-06 17:18:00,
2013-03-06 12:33:00,34.4,27.0,30.16,SW,232,0.0,-999.0,75,-99.99,,,0.02,weatherlink.com 1.10,2013-03-06 17:33:00,
2013-03-06 12:48:00,36.4,28.0,30.14,NW,322,3.0,-999.0,71,-99.99,,,0.02,weatherlink.com 1.10,2013-03-06 17:48:00,
2013-03-06 13:03:00,37.3,28.0,30.14,SW,218,4.0,-999.0,68,-99.99,,,0.02,weatherlink.com 1.10,2013-03-06 18:03:00,
2013-03-06 13:18:00,37.1,27.0,30.14,North,349,0.0,-999.0,68,-99.99,,,0.03,weatherlink.com 1.10,2013-03-06 18:18:00,
2013-03-06 13:33:00,36.8,27.0,30.14,NNW,330,1.0,-999.0,68,-99.99,,,0.04,weatherlink.com 1.10,2013-03-06 18:33:00,
2013-03-06 13:48:00,36.3,27.0,30.14,West,266,1.0,-999.0,70,-99.99,,,0.04,weatherlink.com 1.10,2013-03-06 18:48:00,
2013-03-06 14:03:00,36.5,28.0,30.14,NNE,19,3.0,-999.0,70,-99.99,,,0.04,weatherlink.com 1.10,2013-03-06 19:03:00,
2013-03-06 14:33:00,36.7,27.0,30.14,WNW,298,0.0,-999.0,69,-99.99,,,0.05,weatherlink.com 1.10,2013-03-06 19:33:00,
2013-03-06 14:48:00,36.1,28.0,30.14,NW,325,1.0,-999.0,71,-99.99,,,0.05,weatherlink.com 1.10,2013-03-06 19:48:00,
2013-03-06 15:18:00,35.4,28.0,30.15,NW,304,0.0,-999.0,74,-99.99,,,0.05,weatherlink.com 1.10,2013-03-06 20:18:00,
2013-03-06 15:33:00,35.1,28.0,30.15,West,275,0.0,-999.0,75,-99.99,,,0.05,weatherlink.com 1.10,2013-03-06 20:33:00,
2013-03-06 15:48:00,34.8,27.0,30.15,West,277,4.0,-999.0,74,-99.99,,,0.05,weatherlink.com 1.10,2013-03-06 20:48:00,
2013-03-06 16:03:00,34.8,28.0,30.15,West,263,0.0,-999.0,76,-99.99,,,0.05,weatherlink.com 1.10,2013-03-06 21:03:00,
2013-03-06 16:18:00,34.8,28.0,30.15,WSW,249,0.0,-999.0,75,-99.99,,,0.05,weatherlink.com 1.10,2013-03-06 21:18:00,
2013-03-06 16:33:00,35.0,27.0,30.15,NNE,23,0.0,-999.0,73,-99.99,,,0.05,weatherlink.com 1.10,2013-03-06 21:33:00,
2013-03-06 16:48:00,35.0,28.0,30.15,SSE,161,0.0,-999.0,75,-99.99,,,0.06,weatherlink.com 1.10,2013-03-06 21:48:00,
2013-03-06 17:03:00,34.3,27.0,30.15,WNW,282,0.0,-999.0,76,-99.99,,,0.06,weatherlink.com 1.10,2013-03-06 22:03:00,
2013-03-06 17:18:00,33.7,27.0,30.15,West,265,0.0,-999.0,77,-99.99,,,0.06,weatherlink.com 1.10,2013-03-06 22:18:00,
2013-03-06 17:33:00,33.3,27.0,30.16,WNW,284,1.0,-999.0,78,-99.99,,,0.06,weatherlink.com 1.10,2013-03-06 22:33:00,
2013-03-06 17:48:00,32.9,27.0,30.16,WNW,298,1.0,-999.0,79,-99.99,,,0.06,weatherlink.com 1.10,2013-03-06 22:48:00,
2013-03-06 18:04:00,32.7,27.0,30.17,NW,317,1.0,-999.0,78,-99.99,,,0.06,weatherlink.com 1.10,2013-03-06 23:04:00,
2013-03-06 18:18:00,32.4,27.0,30.18,WNW,298,0.0,-999.0,79,-99.99,,,0.06,weatherlink.com 1.10,2013-03-06 23:18:00,
2013-03-06 18:34:00,32.0,27.0,30.17,WNW,297,0.0,-999.0,80,-99.99,,,0.06,weatherlink.com 1.10,2013-03-06 23:34:00,
2013-03-06 18:49:00,31.7,27.0,30.17,West,275,0.0,-999.0,81,-99.99,,,0.06,weatherlink.com 1.10,2013-03-06 23:49:00,
2013-03-06 19:04:00,31.5,26.0,30.18,WNW,297,0.0,-999.0,81,-99.99,,,0.06,weatherlink.com 1.10,2013-03-07 00:04:00,
2013-03-06 19:19:00,31.3,27.0,30.18,WNW,284,0.0,-999.0,83,-99.99,,,0.06,weatherlink.com 1.10,2013-03-07 00:19:00,
2013-03-06 19:34:00,31.3,27.0,30.18,WNW,285,0.0,-999.0,84,-99.99,,,0.06,weatherlink.com 1.10,2013-03-07 00:34:00,
2013-03-06 19:49:00,31.2,27.0,30.18,WNW,292,0.0,-999.0,83,-99.99,,,0.06,weatherlink.com 1.10,2013-03-07 00:49:00,
2013-03-06 20:04:00,31.0,26.0,30.19,WNW,292,0.0,-999.0,83,-99.99,,,0.06,weatherlink.com 1.10,2013-03-07 01:04:00,
2013-03-06 20:19:00,30.6,26.0,30.18,WNW,292,0.0,-999.0,83,-99.99,,,0.06,weatherlink.com 1.10,2013-03-07 01:19:00,
2013-03-06 20:34:00,30.0,26.0,30.18,WNW,292,0.0,-999.0,84,-99.99,,,0.06,weatherlink.com 1.10,2013-03-07 01:34:00,
2013-03-06 20:49:00,29.5,25.0,30.17,WNW,292,0.0,-999.0,84,-99.99,,,0.06,weatherlink.com 1.10,2013-03-07 01:49:00,
2013-03-06 21:04:00,29.6,25.0,30.17,West,276,0.0,-999.0,84,-99.99,,,0.06,weatherlink.com 1.10,2013-03-07 02:04:00,
2013-03-06 21:19:00,29.6,25.0,30.17,WNW,292,0.0,-999.0,83,-99.99,,,0.06,weatherlink.com 1.10,2013-03-07 02:19:00,
2013-03-06 21:34:00,29.5,25.0,30.16,NW,313,0.0,-999.0,84,-99.99,,,0.06,weatherlink.com 1.10,2013-03-07 02:34:00,
2013-03-06 21:49:00,29.5,25.0,30.16,West,267,0.0,-999.0,82,-99.99,,,0.06,weatherlink.com 1.10,2013-03-07 02:49:00,
2013-03-06 22:04:00,29.8,25.0,30.16,West,267,0.0,-999.0,83,-99.99,,,0.06,weatherlink.com 1.10,2013-03-07 03:04:00,
2013-03-06 22:19:00,29.8,25.0,30.16,West,269,0.0,-999.0,81,-99.99,,,0.06,weatherlink.com 1.10,2013-03-07 03:19:00,
2013-03-06 22:34:00,29.7,25.0,30.16,West,269,0.0,-999.0,81,-99.99,,,0.06,weatherlink.com 1.10,2013-03-07 03:34:00,
2013-03-06 22:49:00,29.4,24.0,30.16,West,269,0.0,-999.0,80,-99.99,,,0.06,weatherlink.com 1.10,2013-03-07 03:49:00,
2013-03-06 23:04:00,29.3,24.0,30.16,NW,305,0.0,-999.0,80,-99.99,,,0.06,weatherlink.com 1.10,2013-03-07 04:04:00,
2013-03-06 23:19:00,29.2,24.0,30.16,NW,305,0.0,-999.0,80,-99.99,,,0.06,weatherlink.com 1.10,2013-03-07 04:19:00,
2013-03-06 23:34:00,29.0,24.0,30.16,NW,305,1.0,-999.0,81,-99.99,,,0.06,weatherlink.com 1.10,2013-03-07 04:34:00,
2013-03-06 23:49:00,29.1,24.0,30.15,West,276,0.0,-999.0,81,-99.99,,,0.06,weatherlink.com 1.10,2013-03-07 04:49:00,